sensor_id;sensor_type;location;lat;lon;timestamp;pressure;altitude;pressure_sealevel;temperature;humidity
26531;BME280;14201;43.188;24.160;2023-03-03T00:01:05;100002.38;;;6.55;96.77
26531;BME280;14201;43.188;24.160;2023-03-03T00:03:31;100008.38;;;6.54;95.69
26531;BME280;14201;43.188;24.160;2023-03-03T00:05:58;100001.00;;;6.47;96.10
26531;BME280;14201;43.188;24.160;2023-03-03T00:08:24;100001.22;;;6.50;96.24
26531;BME280;14201;43.188;24.160;2023-03-03T00:10:50;99999.03;;;6.43;96.11
26531;BME280;14201;43.188;24.160;2023-03-03T00:13:21;99997.81;;;6.38;96.44
26531;BME280;14201;43.188;24.160;2023-03-03T00:15:48;99984.31;;;6.28;96.36
26531;BME280;14201;43.188;24.160;2023-03-03T00:20:53;99988.28;;;6.37;96.58
26531;BME280;14201;43.188;24.160;2023-03-03T00:23:30;99986.28;;;6.33;96.60
26531;BME280;14201;43.188;24.160;2023-03-03T00:25:59;99981.72;;;6.42;96.21
26531;BME280;14201;43.188;24.160;2023-03-03T00:28:42;99981.22;;;6.34;96.20
26531;BME280;14201;43.188;24.160;2023-03-03T00:31:18;99977.94;;;6.23;96.06
26531;BME280;14201;43.188;24.160;2023-03-03T00:33:52;99982.00;;;6.20;97.24
26531;BME280;14201;43.188;24.160;2023-03-03T00:38:48;99971.38;;;6.15;96.96
26531;BME280;14201;43.188;24.160;2023-03-03T00:41:25;99964.41;;;6.14;97.35
26531;BME280;14201;43.188;24.160;2023-03-03T00:43:52;99969.28;;;6.23;96.92
26531;BME280;14201;43.188;24.160;2023-03-03T00:46:20;99960.53;;;6.21;96.54
26531;BME280;14201;43.188;24.160;2023-03-03T00:48:47;99955.16;;;6.18;96.64
26531;BME280;14201;43.188;24.160;2023-03-03T00:53:48;99958.63;;;6.18;97.35
26531;BME280;14201;43.188;24.160;2023-03-03T00:56:13;99954.66;;;6.23;96.83
26531;BME280;14201;43.188;24.160;2023-03-03T00:58:39;99948.78;;;6.13;97.29
26531;BME280;14201;43.188;24.160;2023-03-03T01:01:05;99945.91;;;6.21;97.12
26531;BME280;14201;43.188;24.160;2023-03-03T01:03:31;99949.28;;;6.20;97.17
26531;BME280;14201;43.188;24.160;2023-03-03T01:05:56;99952.06;;;6.23;96.96
26531;BME280;14201;43.188;24.160;2023-03-03T01:08:22;99944.31;;;6.23;96.55
26531;BME280;14201;43.188;24.160;2023-03-03T01:10:55;99943.72;;;6.14;97.37
26531;BME280;14201;43.188;24.160;2023-03-03T01:13:25;99946.28;;;6.14;97.01
26531;BME280;14201;43.188;24.160;2023-03-03T01:15:51;99933.78;;;6.07;97.91
26531;BME280;14201;43.188;24.160;2023-03-03T01:18:17;99941.13;;;6.01;98.28
26531;BME280;14201;43.188;24.160;2023-03-03T01:20:43;99937.38;;;6.09;98.68
26531;BME280;14201;43.188;24.160;2023-03-03T01:23:08;99932.38;;;5.99;98.58
26531;BME280;14201;43.188;24.160;2023-03-03T01:25:35;99936.38;;;6.07;98.18
26531;BME280;14201;43.188;24.160;2023-03-03T01:28:01;99931.88;;;6.04;98.45
26531;BME280;14201;43.188;24.160;2023-03-03T01:30:27;99930.22;;;6.05;98.40
26531;BME280;14201;43.188;24.160;2023-03-03T01:32:53;99926.41;;;6.13;97.14
26531;BME280;14201;43.188;24.160;2023-03-03T01:35:18;99924.44;;;6.09;97.22
26531;BME280;14201;43.188;24.160;2023-03-03T01:37:44;99927.03;;;6.09;97.42
26531;BME280;14201;43.188;24.160;2023-03-03T01:40:16;99919.94;;;6.06;98.03
26531;BME280;14201;43.188;24.160;2023-03-03T01:42:42;99915.97;;;5.98;98.39
26531;BME280;14201;43.188;24.160;2023-03-03T01:47:45;99919.38;;;5.97;98.85
26531;BME280;14201;43.188;24.160;2023-03-03T01:50:14;99918.44;;;5.97;99.07
26531;BME280;14201;43.188;24.160;2023-03-03T01:52:43;99914.28;;;5.99;99.12
26531;BME280;14201;43.188;24.160;2023-03-03T01:55:11;99915.88;;;6.10;98.31
26531;BME280;14201;43.188;24.160;2023-03-03T01:57:46;99909.91;;;6.11;97.76
26531;BME280;14201;43.188;24.160;2023-03-03T02:00:13;99915.88;;;6.10;97.21
26531;BME280;14201;43.188;24.160;2023-03-03T02:02:40;99906.91;;;5.91;97.93
26531;BME280;14201;43.188;24.160;2023-03-03T02:05:08;99917.44;;;5.95;98.57
26531;BME280;14201;43.188;24.160;2023-03-03T02:07:34;99911.69;;;5.99;99.12
26531;BME280;14201;43.188;24.160;2023-03-03T02:10:14;99907.50;;;6.01;98.63
26531;BME280;14201;43.188;24.160;2023-03-03T02:12:43;99906.63;;;6.00;99.19
26531;BME280;14201;43.188;24.160;2023-03-03T02:17:45;99913.78;;;6.04;98.84
26531;BME280;14201;43.188;24.160;2023-03-03T02:20:18;99912.13;;;6.05;98.37
26531;BME280;14201;43.188;24.160;2023-03-03T02:22:50;99911.09;;;6.03;99.01
26531;BME280;14201;43.188;24.160;2023-03-03T02:25:30;99910.31;;;6.04;98.55
26531;BME280;14201;43.188;24.160;2023-03-03T02:27:57;99907.13;;;6.08;98.20
26531;BME280;14201;43.188;24.160;2023-03-03T02:30:23;99909.00;;;6.10;98.08
26531;BME280;14201;43.188;24.160;2023-03-03T02:32:49;99903.66;;;6.07;97.76
26531;BME280;14201;43.188;24.160;2023-03-03T02:35:48;99918.06;;;6.17;97.81
26531;BME280;14201;43.188;24.160;2023-03-03T02:38:08;99912.00;;;6.17;96.98
26531;BME280;14201;43.188;24.160;2023-03-03T02:40:38;99921.25;;;6.13;97.84
26531;BME280;14201;43.188;24.160;2023-03-03T02:43:06;99913.59;;;6.15;97.92
26531;BME280;14201;43.188;24.160;2023-03-03T02:45:39;99914.28;;;6.12;98.04
26531;BME280;14201;43.188;24.160;2023-03-03T02:48:05;99919.84;;;6.18;97.48
26531;BME280;14201;43.188;24.160;2023-03-03T02:50:31;99920.25;;;6.11;97.93
26531;BME280;14201;43.188;24.160;2023-03-03T02:52:56;99915.88;;;6.10;98.76
26531;BME280;14201;43.188;24.160;2023-03-03T02:55:22;99908.22;;;6.11;98.96
26531;BME280;14201;43.188;24.160;2023-03-03T02:57:47;99911.09;;;6.16;98.35
26531;BME280;14201;43.188;24.160;2023-03-03T03:00:12;99912.06;;;6.18;98.22
26531;BME280;14201;43.188;24.160;2023-03-03T03:02:38;99914.00;;;6.21;98.23
26531;BME280;14201;43.188;24.160;2023-03-03T03:05:03;99904.91;;;6.27;97.18
26531;BME280;14201;43.188;24.160;2023-03-03T03:07:29;99907.38;;;6.26;97.13
26531;BME280;14201;43.188;24.160;2023-03-03T03:09:54;99906.22;;;6.21;97.63
26531;BME280;14201;43.188;24.160;2023-03-03T03:12:20;99910.31;;;6.17;97.83
26531;BME280;14201;43.188;24.160;2023-03-03T03:14:45;99911.41;;;6.21;97.73
26531;BME280;14201;43.188;24.160;2023-03-03T03:17:11;99900.56;;;6.13;98.13
26531;BME280;14201;43.188;24.160;2023-03-03T03:19:37;99894.91;;;6.19;98.13
26531;BME280;14201;43.188;24.160;2023-03-03T03:22:02;99893.78;;;6.15;97.67
26531;BME280;14201;43.188;24.160;2023-03-03T03:24:28;99891.81;;;6.11;98.11
26531;BME280;14201;43.188;24.160;2023-03-03T03:26:53;99892.00;;;6.14;98.08
26531;BME280;14201;43.188;24.160;2023-03-03T03:29:18;99891.00;;;6.12;98.21
26531;BME280;14201;43.188;24.160;2023-03-03T03:31:44;99890.59;;;6.19;97.86
26531;BME280;14201;43.188;24.160;2023-03-03T03:34:09;99888.41;;;6.25;96.77
26531;BME280;14201;43.188;24.160;2023-03-03T03:36:34;99883.44;;;6.28;95.34
26531;BME280;14201;43.188;24.160;2023-03-03T03:39:02;99882.06;;;6.07;96.50
26531;BME280;14201;43.188;24.160;2023-03-03T03:41:30;99878.78;;;6.09;96.42
26531;BME280;14201;43.188;24.160;2023-03-03T03:43:56;99873.34;;;6.05;95.90
26531;BME280;14201;43.188;24.160;2023-03-03T03:46:21;99871.59;;;5.92;96.80
26531;BME280;14201;43.188;24.160;2023-03-03T03:48:46;99867.31;;;5.92;97.89
26531;BME280;14201;43.188;24.160;2023-03-03T03:51:12;99863.38;;;5.98;97.58
26531;BME280;14201;43.188;24.160;2023-03-03T03:53:37;99869.72;;;5.89;98.42
26531;BME280;14201;43.188;24.160;2023-03-03T03:56:03;99863.13;;;5.95;99.15
26531;BME280;14201;43.188;24.160;2023-03-03T03:58:28;99862.97;;;5.91;98.65
26531;BME280;14201;43.188;24.160;2023-03-03T04:00:54;99851.81;;;5.92;99.16
26531;BME280;14201;43.188;24.160;2023-03-03T04:03:20;99859.19;;;6.00;99.00
26531;BME280;14201;43.188;24.160;2023-03-03T04:05:45;99852.16;;;5.97;98.67
26531;BME280;14201;43.188;24.160;2023-03-03T04:08:11;99851.25;;;5.97;99.47
26531;BME280;14201;43.188;24.160;2023-03-03T04:10:36;99853.94;;;5.98;99.35
26531;BME280;14201;43.188;24.160;2023-03-03T04:13:02;99850.94;;;6.05;98.70
26531;BME280;14201;43.188;24.160;2023-03-03T04:15:27;99843.47;;;6.10;98.20
26531;BME280;14201;43.188;24.160;2023-03-03T04:17:52;99846.44;;;6.16;97.73
26531;BME280;14201;43.188;24.160;2023-03-03T04:20:18;99848.75;;;6.11;97.06
26531;BME280;14201;43.188;24.160;2023-03-03T04:22:43;99857.38;;;6.12;97.14
26531;BME280;14201;43.188;24.160;2023-03-03T04:25:10;99853.81;;;6.10;97.49
26531;BME280;14201;43.188;24.160;2023-03-03T04:27:37;99855.63;;;6.11;97.82
26531;BME280;14201;43.188;24.160;2023-03-03T04:30:04;99857.00;;;6.06;97.51
26531;BME280;14201;43.188;24.160;2023-03-03T04:32:29;99853.31;;;6.02;98.01
26531;BME280;14201;43.188;24.160;2023-03-03T04:34:55;99859.69;;;6.07;97.60
26531;BME280;14201;43.188;24.160;2023-03-03T04:37:21;99859.47;;;6.04;97.36
26531;BME280;14201;43.188;24.160;2023-03-03T04:39:46;99851.84;;;6.06;97.83
26531;BME280;14201;43.188;24.160;2023-03-03T04:42:12;99852.22;;;6.12;96.94
26531;BME280;14201;43.188;24.160;2023-03-03T04:44:38;99849.47;;;6.09;97.04
26531;BME280;14201;43.188;24.160;2023-03-03T04:47:04;99855.22;;;6.05;97.22
26531;BME280;14201;43.188;24.160;2023-03-03T04:49:29;99857.09;;;6.07;97.52
26531;BME280;14201;43.188;24.160;2023-03-03T04:51:54;99839.00;;;6.07;97.45
26531;BME280;14201;43.188;24.160;2023-03-03T04:54:20;99849.53;;;6.10;97.26
26531;BME280;14201;43.188;24.160;2023-03-03T04:56:45;99850.44;;;6.11;97.26
26531;BME280;14201;43.188;24.160;2023-03-03T04:59:10;99849.53;;;6.10;96.98
26531;BME280;14201;43.188;24.160;2023-03-03T05:01:36;99857.38;;;6.12;97.06
26531;BME280;14201;43.188;24.160;2023-03-03T05:04:01;99860.78;;;6.11;97.33
26531;BME280;14201;43.188;24.160;2023-03-03T05:06:27;99853.03;;;6.11;97.52
26531;BME280;14201;43.188;24.160;2023-03-03T05:08:52;99857.38;;;6.12;97.56
26531;BME280;14201;43.188;24.160;2023-03-03T05:11:18;99859.47;;;6.18;97.26
26531;BME280;14201;43.188;24.160;2023-03-03T05:13:44;99853.91;;;6.25;96.95
26531;BME280;14201;43.188;24.160;2023-03-03T05:16:10;99855.50;;;6.23;96.40
26531;BME280;14201;43.188;24.160;2023-03-03T05:18:35;99857.19;;;6.22;96.20
26531;BME280;14201;43.188;24.160;2023-03-03T05:21:01;99860.28;;;6.17;96.25
26531;BME280;14201;43.188;24.160;2023-03-03T05:23:26;99848.13;;;6.16;96.15
26531;BME280;14201;43.188;24.160;2023-03-03T05:25:52;99844.56;;;6.14;96.31
26531;BME280;14201;43.188;24.160;2023-03-03T05:28:18;99846.44;;;6.16;96.60
26531;BME280;14201;43.188;24.160;2023-03-03T05:30:43;99841.19;;;6.15;96.11
26531;BME280;14201;43.188;24.160;2023-03-03T05:33:12;99858.47;;;6.16;96.59
26531;BME280;14201;43.188;24.160;2023-03-03T05:35:38;99857.28;;;6.10;97.36
26531;BME280;14201;43.188;24.160;2023-03-03T05:38:04;99859.97;;;6.12;97.65
26531;BME280;14201;43.188;24.160;2023-03-03T05:40:30;99858.75;;;6.20;97.55
26531;BME280;14201;43.188;24.160;2023-03-03T05:42:56;99856.38;;;6.23;95.74
26531;BME280;14201;43.188;24.160;2023-03-03T05:45:22;99863.38;;;6.11;96.23
26531;BME280;14201;43.188;24.160;2023-03-03T05:47:49;99859.81;;;6.09;96.90
26531;BME280;14201;43.188;24.160;2023-03-03T05:50:16;99855.31;;;6.06;97.61
26531;BME280;14201;43.188;24.160;2023-03-03T05:52:42;99864.38;;;6.13;96.82
26531;BME280;14201;43.188;24.160;2023-03-03T05:55:08;99862.94;;;6.18;96.99
26531;BME280;14201;43.188;24.160;2023-03-03T05:57:34;99851.72;;;6.18;96.83
26531;BME280;14201;43.188;24.160;2023-03-03T06:00:02;99866.13;;;6.27;95.75
26531;BME280;14201;43.188;24.160;2023-03-03T06:02:28;99856.88;;;6.18;95.86
26531;BME280;14201;43.188;24.160;2023-03-03T06:04:53;99865.63;;;6.20;96.13
26531;BME280;14201;43.188;24.160;2023-03-03T06:07:19;99854.31;;;6.04;96.15
26531;BME280;14201;43.188;24.160;2023-03-03T06:09:44;99866.34;;;6.04;97.23
26531;BME280;14201;43.188;24.160;2023-03-03T06:12:10;99859.81;;;6.09;97.73
26531;BME280;14201;43.188;24.160;2023-03-03T06:14:36;99853.94;;;5.98;97.36
26531;BME280;14201;43.188;24.160;2023-03-03T06:17:01;99869.94;;;6.06;97.96
26531;BME280;14201;43.188;24.160;2023-03-03T06:19:27;99871.81;;;6.08;97.68
26531;BME280;14201;43.188;24.160;2023-03-03T06:21:52;99874.50;;;6.10;97.94
26531;BME280;14201;43.188;24.160;2023-03-03T06:24:18;99871.78;;;6.22;96.98
26531;BME280;14201;43.188;24.160;2023-03-03T06:26:43;99874.47;;;6.23;95.77
26531;BME280;14201;43.188;24.160;2023-03-03T06:29:09;99872.09;;;6.26;95.66
26531;BME280;14201;43.188;24.160;2023-03-03T06:31:34;99871.28;;;6.27;95.32
26531;BME280;14201;43.188;24.160;2023-03-03T06:34:00;99867.72;;;6.12;96.39
26531;BME280;14201;43.188;24.160;2023-03-03T06:36:26;99871.31;;;6.14;97.07
26531;BME280;14201;43.188;24.160;2023-03-03T06:38:52;99870.81;;;6.20;97.43
26531;BME280;14201;43.188;24.160;2023-03-03T06:41:17;99869.09;;;6.34;95.49
26531;BME280;14201;43.188;24.160;2023-03-03T06:43:43;99876.28;;;6.24;96.02
26531;BME280;14201;43.188;24.160;2023-03-03T06:46:08;99873.88;;;6.27;95.58
26531;BME280;14201;43.188;24.160;2023-03-03T06:48:33;99876.34;;;6.39;94.63
26531;BME280;14201;43.188;24.160;2023-03-03T06:50:59;99880.72;;;6.40;94.30
26531;BME280;14201;43.188;24.160;2023-03-03T06:53:25;99876.22;;;6.38;94.15
26531;BME280;14201;43.188;24.160;2023-03-03T06:55:51;99875.47;;;6.25;94.94
26531;BME280;14201;43.188;24.160;2023-03-03T06:58:17;99877.34;;;6.28;95.19
26531;BME280;14201;43.188;24.160;2023-03-03T07:00:44;99868.91;;;6.30;94.77
26531;BME280;14201;43.188;24.160;2023-03-03T07:03:11;99874.50;;;6.10;96.06
26531;BME280;14201;43.188;24.160;2023-03-03T07:05:38;99866.06;;;5.99;97.62
26531;BME280;14201;43.188;24.160;2023-03-03T07:08:17;99869.81;;;6.04;99.30
26531;BME280;14201;43.188;24.160;2023-03-03T07:10:43;99864.13;;;6.23;98.36
26531;BME280;14201;43.188;24.160;2023-03-03T07:15:43;99861.31;;;6.34;96.39
26531;BME280;14201;43.188;24.160;2023-03-03T07:18:21;99863.03;;;6.20;97.29
26531;BME280;14201;43.188;24.160;2023-03-03T07:20:47;99862.38;;;6.22;97.30
26531;BME280;14201;43.188;24.160;2023-03-03T07:25:50;99864.50;;;6.29;96.59
26531;BME280;14201;43.188;24.160;2023-03-03T07:28:21;99867.22;;;6.31;96.36
26531;BME280;14201;43.188;24.160;2023-03-03T07:30:47;99863.72;;;6.30;96.58
26531;BME280;14201;43.188;24.160;2023-03-03T07:35:44;99849.06;;;6.44;95.75
26531;BME280;14201;43.188;24.160;2023-03-03T07:38:22;99854.06;;;6.28;96.14
26531;BME280;14201;43.188;24.160;2023-03-03T07:40:52;99846.13;;;6.25;96.82
26531;BME280;14201;43.188;24.160;2023-03-03T07:45:57;99854.81;;;5.99;97.80
26531;BME280;14201;43.188;24.160;2023-03-03T07:48:29;99852.03;;;6.09;98.01
26531;BME280;14201;43.188;24.160;2023-03-03T07:50:58;99852.53;;;6.03;98.00
26531;BME280;14201;43.188;24.160;2023-03-03T07:53:29;99845.44;;;6.14;97.10
26531;BME280;14201;43.188;24.160;2023-03-03T07:55:59;99841.19;;;6.15;96.57
26531;BME280;14201;43.188;24.160;2023-03-03T07:58:38;99841.19;;;6.15;97.44
26531;BME280;14201;43.188;24.160;2023-03-03T08:03:52;99833.34;;;6.13;96.32
26531;BME280;14201;43.188;24.160;2023-03-03T08:06:47;99839.25;;;6.25;95.76
26531;BME280;14201;43.188;24.160;2023-03-03T08:11:52;99833.56;;;6.31;96.39
26531;BME280;14201;43.188;24.160;2023-03-03T08:14:25;99835.44;;;6.34;96.71
26531;BME280;14201;43.188;24.160;2023-03-03T08:16:51;99833.47;;;6.29;97.08
26531;BME280;14201;43.188;24.160;2023-03-03T08:19:17;99830.06;;;6.44;95.59
26531;BME280;14201;43.188;24.160;2023-03-03T08:21:43;99822.09;;;6.41;94.95
26531;BME280;14201;43.188;24.160;2023-03-03T08:24:09;99824.78;;;6.42;95.46
26531;BME280;14201;43.188;24.160;2023-03-03T08:26:35;99817.34;;;6.34;96.35
26531;BME280;14201;43.188;24.160;2023-03-03T08:29:01;99819.78;;;6.45;96.36
26531;BME280;14201;43.188;24.160;2023-03-03T08:31:26;99819.22;;;6.64;96.34
26531;BME280;14201;43.188;24.160;2023-03-03T08:33:52;99810.56;;;6.64;95.47
26531;BME280;14201;43.188;24.160;2023-03-03T08:36:18;99820.25;;;6.53;96.01
26531;BME280;14201;43.188;24.160;2023-03-03T08:38:43;99824.53;;;6.53;94.35
26531;BME280;14201;43.188;24.160;2023-03-03T08:41:10;99824.22;;;6.33;95.63
26531;BME280;14201;43.188;24.160;2023-03-03T08:43:36;99823.81;;;6.40;96.08
26531;BME280;14201;43.188;24.160;2023-03-03T08:46:03;99823.81;;;6.40;95.43
26531;BME280;14201;43.188;24.160;2023-03-03T08:48:29;99822.38;;;6.45;94.77
26531;BME280;14201;43.188;24.160;2023-03-03T08:50:55;99816.00;;;6.54;94.43
26531;BME280;14201;43.188;24.160;2023-03-03T08:53:22;99820.19;;;6.52;95.03
26531;BME280;14201;43.188;24.160;2023-03-03T08:55:48;99817.78;;;6.55;95.27
26531;BME280;14201;43.188;24.160;2023-03-03T08:58:16;99813.69;;;6.58;94.64
26531;BME280;14201;43.188;24.160;2023-03-03T09:00:43;99815.59;;;6.47;94.97
26531;BME280;14201;43.188;24.160;2023-03-03T09:03:09;99815.81;;;6.50;95.80
26531;BME280;14201;43.188;24.160;2023-03-03T09:05:36;99810.63;;;6.50;95.26
26531;BME280;14201;43.188;24.160;2023-03-03T09:08:03;99819.78;;;6.74;94.06
26531;BME280;14201;43.188;24.160;2023-03-03T09:10:29;99808.25;;;6.68;94.75
26531;BME280;14201;43.188;24.160;2023-03-03T09:13:03;99812.66;;;6.69;94.21
26531;BME280;14201;43.188;24.160;2023-03-03T09:15:36;99818.34;;;6.64;95.70
26531;BME280;14201;43.188;24.160;2023-03-03T09:18:10;99813.00;;;6.76;96.01
26531;BME280;14201;43.188;24.160;2023-03-03T09:20:39;99814.25;;;6.82;95.37
26531;BME280;14201;43.188;24.160;2023-03-03T09:25:48;99815.53;;;6.89;93.93
26531;BME280;14201;43.188;24.160;2023-03-03T09:28:31;99808.47;;;7.01;92.01
26531;BME280;14201;43.188;24.160;2023-03-03T09:31:00;99810.00;;;6.83;92.51
26531;BME280;14201;43.188;24.160;2023-03-03T09:38:36;99801.25;;;6.81;93.74
26531;BME280;14201;43.188;24.160;2023-03-03T09:41:14;99807.97;;;6.92;92.70
26531;BME280;14201;43.188;24.160;2023-03-03T09:43:55;99810.00;;;6.83;93.23
26531;BME280;14201;43.188;24.160;2023-03-03T09:57:16;99797.31;;;7.32;93.21
26531;BME280;14201;43.188;24.160;2023-03-03T09:59:47;99803.75;;;7.39;90.69
26531;BME280;14201;43.188;24.160;2023-03-03T10:02:23;99796.34;;;7.15;91.26
26531;BME280;14201;43.188;24.160;2023-03-03T10:05:03;99797.59;;;7.22;92.04
26531;BME280;14201;43.188;24.160;2023-03-03T10:22:53;99780.78;;;7.30;93.66
26531;BME280;14201;43.188;24.160;2023-03-03T10:28:13;99784.38;;;7.32;89.93
26531;BME280;14201;43.188;24.160;2023-03-03T10:38:41;99771.41;;;7.32;91.22
26531;BME280;14201;43.188;24.160;2023-03-03T10:41:20;99774.63;;;7.43;89.64
26531;BME280;14201;43.188;24.160;2023-03-03T10:52:21;99758.16;;;7.42;92.02
26531;BME280;14201;43.188;24.160;2023-03-03T10:55:08;99747.97;;;7.45;92.37
26531;BME280;14201;43.188;24.160;2023-03-03T11:05:38;99743.84;;;7.64;90.46
26531;BME280;14201;43.188;24.160;2023-03-03T11:08:10;99736.81;;;7.78;88.71
26531;BME280;14201;43.188;24.160;2023-03-03T11:15:53;99744.69;;;7.96;87.71
26531;BME280;14201;43.188;24.160;2023-03-03T11:30:23;99724.28;;;7.85;86.76
26531;BME280;14201;43.188;24.160;2023-03-03T11:33:56;99721.91;;;7.90;87.26
26531;BME280;14201;43.188;24.160;2023-03-03T11:36:15;99724.00;;;7.81;88.92
26531;BME280;14201;43.188;24.160;2023-03-03T11:38:52;99721.25;;;7.78;90.18
26531;BME280;14201;43.188;24.160;2023-03-03T11:41:35;99717.56;;;7.89;90.28
26531;BME280;14201;43.188;24.160;2023-03-03T11:46:37;99713.03;;;8.01;90.69
26531;BME280;14201;43.188;24.160;2023-03-03T11:49:17;99707.78;;;8.16;90.56
26531;BME280;14201;43.188;24.160;2023-03-03T11:54:50;99703.88;;;8.24;91.72
26531;BME280;14201;43.188;24.160;2023-03-03T12:13:59;99694.63;;;8.46;86.93
26531;BME280;14201;43.188;24.160;2023-03-03T12:16:55;99687.22;;;8.37;88.42
26531;BME280;14201;43.188;24.160;2023-03-03T12:19:24;99694.28;;;8.40;88.98
26531;BME280;14201;43.188;24.160;2023-03-03T12:22:12;99692.47;;;8.39;89.32
26531;BME280;14201;43.188;24.160;2023-03-03T12:33:29;99703.06;;;8.42;90.18
26531;BME280;14201;43.188;24.160;2023-03-03T12:38:39;99689.56;;;8.49;90.04
26531;BME280;14201;43.188;24.160;2023-03-03T12:46:43;99709.44;;;8.65;88.70
26531;BME280;14201;43.188;24.160;2023-03-03T12:49:10;99696.06;;;8.57;88.87
26531;BME280;14201;43.188;24.160;2023-03-03T12:54:17;99702.63;;;8.67;89.14
26531;BME280;14201;43.188;24.160;2023-03-03T12:56:49;99702.03;;;8.73;88.35
26531;BME280;14201;43.188;24.160;2023-03-03T12:59:42;99702.84;;;8.72;87.89
26531;BME280;14201;43.188;24.160;2023-03-03T13:02:28;99700.75;;;8.64;88.41
26531;BME280;14201;43.188;24.160;2023-03-03T13:05:18;99704.31;;;8.66;88.46
26531;BME280;14201;43.188;24.160;2023-03-03T13:10:57;99702.31;;;8.61;89.57
26531;BME280;14201;43.188;24.160;2023-03-03T13:13:42;99698.66;;;8.57;89.23
26531;BME280;14201;43.188;24.160;2023-03-03T13:19:06;99694.34;;;8.58;88.90
26531;BME280;14201;43.188;24.160;2023-03-03T13:21:48;99690.81;;;8.56;88.66
26531;BME280;14201;43.188;24.160;2023-03-03T13:24:17;99696.47;;;8.48;88.35
26531;BME280;14201;43.188;24.160;2023-03-03T13:26:47;99699.06;;;8.48;88.67
26531;BME280;14201;43.188;24.160;2023-03-03T13:29:29;99691.94;;;8.44;89.65
26531;BME280;14201;43.188;24.160;2023-03-03T13:34:44;99687.81;;;8.48;89.33
26531;BME280;14201;43.188;24.160;2023-03-03T13:37:22;99687.28;;;8.39;89.71
26531;BME280;14201;43.188;24.160;2023-03-03T13:45:35;99682.84;;;8.36;88.98
26531;BME280;14201;43.188;24.160;2023-03-03T13:48:25;99684.88;;;8.25;89.75
26531;BME280;14201;43.188;24.160;2023-03-03T13:50:57;99685.19;;;8.32;90.15
26531;BME280;14201;43.188;24.160;2023-03-03T13:58:43;99690.25;;;8.28;89.36
26531;BME280;14201;43.188;24.160;2023-03-03T14:01:13;99687.00;;;8.16;90.41
26531;BME280;14201;43.188;24.160;2023-03-03T14:03:47;99680.25;;;8.20;91.10
26531;BME280;14201;43.188;24.160;2023-03-03T14:06:16;99674.66;;;8.12;90.98
26531;BME280;14201;43.188;24.160;2023-03-03T14:13:43;99683.75;;;8.20;90.39
26531;BME280;14201;43.188;24.160;2023-03-03T14:16:15;99687.56;;;8.27;89.70
26531;BME280;14201;43.188;24.160;2023-03-03T14:21:11;99688.44;;;8.27;90.04
26531;BME280;14201;43.188;24.160;2023-03-03T14:26:16;99686.19;;;8.17;89.51
26531;BME280;14201;43.188;24.160;2023-03-03T14:28:45;99690.00;;;8.24;89.26
26531;BME280;14201;43.188;24.160;2023-03-03T14:33:41;99684.56;;;8.19;89.07
26531;BME280;14201;43.188;24.160;2023-03-03T14:36:11;99680.25;;;8.20;89.19
26531;BME280;14201;43.188;24.160;2023-03-03T14:38:38;99683.81;;;8.22;89.55
26531;BME280;14201;43.188;24.160;2023-03-03T14:43:36;99676.56;;;8.15;89.51
26531;BME280;14201;43.188;24.160;2023-03-03T14:48:49;99686.44;;;8.05;90.63
26531;BME280;14201;43.188;24.160;2023-03-03T14:51:22;99689.34;;;8.12;90.25
26531;BME280;14201;43.188;24.160;2023-03-03T14:53:48;99688.06;;;8.03;90.33
26531;BME280;14201;43.188;24.160;2023-03-03T14:56:24;99685.00;;;8.11;90.01
26531;BME280;14201;43.188;24.160;2023-03-03T14:58:51;99687.50;;;8.09;89.81
26531;BME280;14201;43.188;24.160;2023-03-03T15:11:59;99681.56;;;8.12;88.17
26531;BME280;14201;43.188;24.160;2023-03-03T15:14:38;99675.19;;;8.05;88.71
26531;BME280;14201;43.188;24.160;2023-03-03T15:20:02;99689.81;;;8.04;89.69
26531;BME280;14201;43.188;24.160;2023-03-03T15:25:37;99674.66;;;8.12;88.02
26531;BME280;14201;43.188;24.160;2023-03-03T15:30:40;99671.75;;;8.06;89.05
26531;BME280;14201;43.188;24.160;2023-03-03T15:33:24;99682.00;;;8.03;89.75
26531;BME280;14201;43.188;24.160;2023-03-03T15:36:21;99674.25;;;8.04;90.09
26531;BME280;14201;43.188;24.160;2023-03-03T15:47:52;99686.25;;;8.02;90.46
26531;BME280;14201;43.188;24.160;2023-03-03T15:50:51;99686.91;;;7.98;91.15
26531;BME280;14201;43.188;24.160;2023-03-03T15:54:04;99688.72;;;7.99;91.50
26531;BME280;14201;43.188;24.160;2023-03-03T15:56:32;99686.81;;;7.97;91.98
26531;BME280;14201;43.188;24.160;2023-03-03T16:02:10;99690.91;;;7.92;91.66
26531;BME280;14201;43.188;24.160;2023-03-03T16:04:56;99700.38;;;7.91;91.71
26531;BME280;14201;43.188;24.160;2023-03-03T16:13:20;99703.94;;;7.93;92.08
26531;BME280;14201;43.188;24.160;2023-03-03T16:16:08;99705.63;;;7.93;92.08
26531;BME280;14201;43.188;24.160;2023-03-03T16:25:02;99710.50;;;7.86;92.67
26531;BME280;14201;43.188;24.160;2023-03-03T16:32:50;99717.78;;;7.94;92.60
26531;BME280;14201;43.188;24.160;2023-03-03T16:35:20;99719.75;;;7.98;92.07
26531;BME280;14201;43.188;24.160;2023-03-03T16:37:52;99722.16;;;7.95;92.59
26531;BME280;14201;43.188;24.160;2023-03-03T16:42:46;99722.41;;;7.99;93.05
26531;BME280;14201;43.188;24.160;2023-03-03T16:47:53;99729.22;;;7.97;93.29
26531;BME280;14201;43.188;24.160;2023-03-03T16:50:39;99732.75;;;7.83;93.75
26531;BME280;14201;43.188;24.160;2023-03-03T17:03:49;99740.66;;;7.38;95.97
26531;BME280;14201;43.188;24.160;2023-03-03T17:24:45;99751.50;;;7.16;100.00
26531;BME280;14201;43.188;24.160;2023-03-03T17:27:27;99749.91;;;7.18;100.00
26531;BME280;14201;43.188;24.160;2023-03-03T17:45:33;99762.66;;;7.15;100.00
26531;BME280;14201;43.188;24.160;2023-03-03T17:51:02;99768.75;;;7.16;100.00
26531;BME280;14201;43.188;24.160;2023-03-03T17:53:45;99774.09;;;7.19;100.00
26531;BME280;14201;43.188;24.160;2023-03-03T17:57:09;99759.09;;;7.13;100.00
26531;BME280;14201;43.188;24.160;2023-03-03T18:18:34;99779.38;;;7.35;99.43
26531;BME280;14201;43.188;24.160;2023-03-03T18:21:58;99781.47;;;7.42;98.86